ENNM/OSY METAR and TAF weather

Enter ICAO airport designator
Station Type Date Time Source
ENNM METAR 2020/01/21 20:50 UTC NOAA

ENNM 212050Z 27016G28KT 240V320 3000 -SHSNRA VV012 02/M02 Q1009


Station Type Date Time Source
ENNM Decoded METAR 2020/01/21 20:50 UTC NOAA

Namsos Lufthavn, Norway (ENNM) 64-28N 011-35E 2M
Jan 21, 2020 - 03:50 PM EST / 2020.01.21 2050 UTC
Wind: from the W (270 degrees) at 18 MPH (16 KT) gusting to 32 MPH (28 KT) (direction variable):0
Visibility: 1 mile(s):0
Sky conditions: obscured
Weather: light snow showers, rain
Temperature: 35 F (2 C)
Windchill: 24 F (-4 C):1
Dew Point: 28 F (-2 C)
Relative Humidity: 74%
Pressure (altimeter): 29.80 in. Hg (1009 hPa)
ob: ENNM 212050Z 27016G28KT 240V320 3000 -SHSNRA VV012 02/M02 Q1009
cycle: 21

Station Type Date Time Source
ENNM TAF UTC NOAA

Error!

Example: see airport list